Burrillville, Rhode Island
Current Conditions -  °F | °C
As of 7:55 AM on Friday 19 Dec 2014 (Local Time) from KSFZ Reporting Station
Overcast Overcast  
Wind Chill: 28°   Ceiling: 4500
Heat Index: 34°   Visibility: 10mi
Dew Point: 18°   Wind: 7mph
Humidity: 52%   Direction: 270°W
Pressure: 29.91"   Gusts: NA
Location:  41.9762°N, 71.6332°W
Report Text: KSFZ 191255Z 27006KT 10SM OVC045 01/M08 A2991 RMK AO1
Loading
Personal Weather Stations






























Interactive Weather Map New forecast layout! Learn more

10-Day Weather Forecast

Advertisements
Track Severe Weather on mobile